Fox Lake, Illinois
Current Conditions -  °F | °C
As of 6:03 AM on Monday 24 Nov 2014 (Local Time) from KUGN Reporting Station
Haze Haze  
Wind Chill: 44°   Ceiling: 400
Heat Index: 46°   Visibility: 3mi
Dew Point: 45°   Wind: 5mph
Humidity: 96%   Direction: 220°SW
Pressure: 29.06"   Gusts: NA
Location:  42.39°N, 88.16°W
Report Text: KUGN 241203Z 22004KT 3SM BR OVC004 08/07 A2906 RMK AO2 RAB1158E02 P0000 T00780072
Loading
Personal Weather Stations






























Interactive Weather Map New forecast layout! Learn more

10-Day Weather Forecast

Advertisements
Track Severe Weather on mobile